createdAt,value
2023-05-10T00:00:23.707Z,63.88
2023-05-10T00:02:50.556Z,63.86
2023-05-10T00:05:17.715Z,64.08
2023-05-10T00:07:47.794Z,64.05
2023-05-10T00:10:14.536Z,64.25
2023-05-10T00:12:41.479Z,64.25
2023-05-10T00:15:10.872Z,64.40
2023-05-10T00:17:37.640Z,64.48
2023-05-10T00:20:05.924Z,64.55
2023-05-10T00:22:33.507Z,64.63
2023-05-10T00:25:00.624Z,64.76
2023-05-10T00:27:27.310Z,64.87
2023-05-10T00:29:54.152Z,64.75
2023-05-10T00:32:20.822Z,64.92
2023-05-10T00:34:47.664Z,65.04
2023-05-10T00:37:14.666Z,64.86
2023-05-10T00:39:41.245Z,65.46
2023-05-10T00:42:07.854Z,65.66
2023-05-10T00:44:34.956Z,65.84
2023-05-10T00:47:01.786Z,65.63
2023-05-10T00:49:29.228Z,65.91
2023-05-10T00:51:56.391Z,66.12
2023-05-10T00:54:23.154Z,66.16
2023-05-10T00:56:50.425Z,66.33
2023-05-10T00:59:18.884Z,66.62
2023-05-10T01:01:49.082Z,66.60
2023-05-10T01:04:16.831Z,67.22
2023-05-10T01:06:44.522Z,66.78
2023-05-10T01:09:12.722Z,66.75
2023-05-10T01:11:40.557Z,66.78
2023-05-10T01:14:07.970Z,66.62
2023-05-10T01:16:39.452Z,66.60
2023-05-10T01:19:27.822Z,66.96
2023-05-10T01:22:07.725Z,66.83
2023-05-10T01:24:43.554Z,66.49
2023-05-10T01:27:21.145Z,66.64
2023-05-10T01:30:14.745Z,66.58
2023-05-10T01:33:16.415Z,66.39
2023-05-10T01:35:49.457Z,66.49
2023-05-10T01:38:48.484Z,66.72
2023-05-10T01:41:18.173Z,66.92
2023-05-10T01:44:04.619Z,66.81
2023-05-10T01:46:40.306Z,66.92
2023-05-10T01:49:17.541Z,67.01
2023-05-10T01:51:50.395Z,66.91
2023-05-10T01:54:20.438Z,66.85
2023-05-10T01:56:51.828Z,66.98
2023-05-10T01:59:20.623Z,67.21
2023-05-10T02:01:49.717Z,67.14
2023-05-10T02:04:18.852Z,67.16
2023-05-10T02:06:49.015Z,67.19
2023-05-10T02:09:16.804Z,66.94
2023-05-10T02:11:45.302Z,66.96
2023-05-10T02:14:13.210Z,67.17
2023-05-10T02:16:41.544Z,67.16
2023-05-10T02:19:10.068Z,67.29
2023-05-10T02:21:38.268Z,67.24
2023-05-10T02:24:06.342Z,67.26
2023-05-10T02:26:35.285Z,67.48
2023-05-10T02:29:04.481Z,67.61
2023-05-10T02:31:36.562Z,67.38
2023-05-10T02:34:04.546Z,67.70
2023-05-10T02:36:32.933Z,67.30
2023-05-10T02:39:02.946Z,67.76
2023-05-10T02:41:33.294Z,67.76
2023-05-10T02:44:02.211Z,67.79
2023-05-10T02:46:29.187Z,67.69
2023-05-10T02:48:56.053Z,67.56
2023-05-10T02:51:26.820Z,67.76
2023-05-10T02:53:55.187Z,67.68
2023-05-10T02:56:29.756Z,67.68
2023-05-10T02:58:56.908Z,67.78
2023-05-10T03:01:23.798Z,68.02
2023-05-10T03:03:50.455Z,68.07
2023-05-10T03:06:17.705Z,67.90
2023-05-10T03:08:45.689Z,68.08
2023-05-10T03:11:22.258Z,68.05
2023-05-10T03:14:08.868Z,68.13
2023-05-10T03:16:48.133Z,68.19
2023-05-10T03:19:25.888Z,68.21
2023-05-10T03:21:54.851Z,68.08
2023-05-10T03:24:24.235Z,68.10
2023-05-10T03:26:52.857Z,68.38
2023-05-10T03:29:21.125Z,68.38
2023-05-10T03:31:47.906Z,68.23
2023-05-10T03:34:14.556Z,68.13
2023-05-10T03:36:41.241Z,68.25
2023-05-10T03:39:07.961Z,68.23
2023-05-10T03:41:34.608Z,68.37
2023-05-10T03:44:01.424Z,68.29
2023-05-10T03:46:28.409Z,68.59
2023-05-10T03:48:55.015Z,68.42
2023-05-10T03:51:21.732Z,68.67
2023-05-10T03:53:48.657Z,68.78
2023-05-10T03:56:15.287Z,68.77
2023-05-10T03:58:42.040Z,69.15
2023-05-10T04:01:08.852Z,68.94
2023-05-10T04:03:37.574Z,69.25
2023-05-10T04:06:05.164Z,69.21
2023-05-10T04:08:32.596Z,69.60
2023-05-10T04:11:10.112Z,69.81
2023-05-10T04:13:36.967Z,69.80
2023-05-10T04:16:03.830Z,69.58
2023-05-10T04:18:31.041Z,69.61
2023-05-10T04:20:57.812Z,69.94
2023-05-10T04:23:24.401Z,70.08
2023-05-10T04:25:51.014Z,70.10
2023-05-10T04:28:17.900Z,70.13
2023-05-10T04:30:44.480Z,70.10
2023-05-10T04:33:11.103Z,70.50
2023-05-10T04:35:37.954Z,70.25
2023-05-10T04:38:04.540Z,70.72
2023-05-10T04:40:31.364Z,70.73
2023-05-10T04:42:58.033Z,71.01
2023-05-10T04:45:24.660Z,70.93
2023-05-10T04:47:51.551Z,71.06
2023-05-10T04:50:18.720Z,70.97
2023-05-10T04:52:46.022Z,71.24
2023-05-10T04:55:13.195Z,71.22
2023-05-10T04:57:39.933Z,71.61
2023-05-10T05:00:07.266Z,71.93
2023-05-10T05:02:34.071Z,71.75
2023-05-10T05:05:00.829Z,71.90
2023-05-10T05:07:27.510Z,72.46
2023-05-10T05:09:54.168Z,72.28
2023-05-10T05:12:20.884Z,72.78
2023-05-10T05:14:47.513Z,72.66
2023-05-10T05:17:14.290Z,72.29
2023-05-10T05:19:41.163Z,72.63
2023-05-10T05:22:09.177Z,72.47
2023-05-10T05:24:37.999Z,72.78
2023-05-10T05:27:07.857Z,72.45
2023-05-10T05:29:34.732Z,72.74
2023-05-10T05:32:02.446Z,73.00
2023-05-10T05:34:29.489Z,72.99
2023-05-10T05:36:56.443Z,73.03
2023-05-10T05:39:23.622Z,72.60
2023-05-10T05:41:50.597Z,72.95
2023-05-10T05:44:17.204Z,72.77
2023-05-10T05:46:43.887Z,72.21
2023-05-10T05:49:10.894Z,72.04
2023-05-10T05:51:37.730Z,72.12
2023-05-10T05:54:05.587Z,71.74
2023-05-10T05:56:32.524Z,71.87
2023-05-10T05:58:59.178Z,71.32
2023-05-10T06:01:25.982Z,70.84
2023-05-10T06:03:53.408Z,70.24
2023-05-10T06:06:20.432Z,69.83
2023-05-10T06:08:47.121Z,69.03
2023-05-10T06:11:13.808Z,68.67
2023-05-10T06:13:40.480Z,68.24
2023-05-10T06:16:07.500Z,67.64
2023-05-10T06:18:34.647Z,67.28
2023-05-10T06:21:03.006Z,66.86
2023-05-10T06:23:30.218Z,66.08
2023-05-10T06:25:56.862Z,65.36
2023-05-10T06:28:23.532Z,64.89
2023-05-10T06:30:50.523Z,64.08
2023-05-10T06:33:17.160Z,63.53
2023-05-10T06:35:43.777Z,62.60
2023-05-10T06:38:10.563Z,62.00
2023-05-10T06:40:37.161Z,61.43
2023-05-10T06:43:03.796Z,61.03
2023-05-10T06:45:30.821Z,60.74
2023-05-10T06:47:57.421Z,60.02
2023-05-10T06:50:24.264Z,59.37
2023-05-10T06:52:52.950Z,58.15
2023-05-10T06:55:20.208Z,57.34
2023-05-10T06:57:47.002Z,56.76
2023-05-10T07:00:14.511Z,55.74
2023-05-10T07:02:41.364Z,55.25
2023-05-10T07:05:08.451Z,54.65
2023-05-10T07:07:35.765Z,54.30
2023-05-10T07:10:02.757Z,53.49
2023-05-10T07:12:29.469Z,53.12
2023-05-10T07:14:56.311Z,52.63
2023-05-10T07:17:23.006Z,52.03
2023-05-10T07:19:49.969Z,51.10
2023-05-10T07:22:17.936Z,51.32
2023-05-10T07:24:44.689Z,50.81
2023-05-10T07:27:11.279Z,50.21
2023-05-10T07:29:38.673Z,49.72
2023-05-10T07:32:07.899Z,49.39
2023-05-10T07:34:35.016Z,48.51
2023-05-10T07:37:02.751Z,47.91
2023-05-10T07:39:29.555Z,46.89
2023-05-10T07:41:56.831Z,46.74
2023-05-10T07:44:23.915Z,46.35
2023-05-10T07:46:50.721Z,46.38
2023-05-10T07:49:17.662Z,45.82
2023-05-10T07:51:44.624Z,44.92
2023-05-10T07:54:11.298Z,45.18
2023-05-10T07:56:37.964Z,45.06
2023-05-10T07:59:10.672Z,44.54
2023-05-10T08:01:38.613Z,44.89
2023-05-10T08:04:05.342Z,43.76
2023-05-10T08:06:32.302Z,43.36
2023-05-10T08:08:59.210Z,43.08
2023-05-10T08:11:26.091Z,43.02
2023-05-10T08:13:53.348Z,42.79
2023-05-10T08:16:20.833Z,42.05
2023-05-10T08:18:48.189Z,41.98
2023-05-10T08:21:16.775Z,41.29
2023-05-10T08:23:45.098Z,40.71
2023-05-10T08:26:12.150Z,40.21
2023-05-10T08:28:39.237Z,39.87
2023-05-10T08:31:06.842Z,39.75
2023-05-10T08:33:33.617Z,39.97
2023-05-10T08:36:00.581Z,40.06
2023-05-10T08:38:27.190Z,40.13
2023-05-10T08:40:58.069Z,39.97
2023-05-10T08:43:28.273Z,40.06
2023-05-10T08:45:55.680Z,39.89
2023-05-10T08:48:25.263Z,39.78
2023-05-10T08:50:56.037Z,39.42
2023-05-10T08:53:26.940Z,39.65
2023-05-10T08:55:54.028Z,39.59
2023-05-10T08:58:21.670Z,39.93
2023-05-10T09:00:54.379Z,39.57
2023-05-10T09:03:21.266Z,39.15
2023-05-10T09:05:48.834Z,38.84
2023-05-10T09:08:17.393Z,38.75
2023-05-10T09:10:49.124Z,38.66
2023-05-10T09:13:16.938Z,38.16
2023-05-10T09:15:48.309Z,38.15
2023-05-10T09:18:15.069Z,37.21
2023-05-10T09:20:42.351Z,37.31
2023-05-10T09:23:09.242Z,37.50
2023-05-10T09:25:36.272Z,36.60
2023-05-10T09:28:03.389Z,36.35
2023-05-10T09:30:31.914Z,36.16
2023-05-10T09:33:00.344Z,36.41
2023-05-10T09:35:30.185Z,36.87
2023-05-10T09:38:01.861Z,37.24
2023-05-10T09:40:30.645Z,37.15
2023-05-10T09:43:02.896Z,36.64
2023-05-10T09:45:32.750Z,36.14
2023-05-10T09:48:00.767Z,36.20
2023-05-10T09:50:28.031Z,35.97
2023-05-10T09:52:56.056Z,35.99
2023-05-10T09:55:47.762Z,34.91
2023-05-10T09:58:15.489Z,34.30
2023-05-10T10:00:48.637Z,34.08
2023-05-10T10:03:21.268Z,32.91
2023-05-10T10:05:49.252Z,32.58
2023-05-10T10:08:16.732Z,32.80
2023-05-10T10:10:46.136Z,33.44
2023-05-10T10:13:13.257Z,33.57
2023-05-10T10:15:40.436Z,33.24
2023-05-10T10:18:09.199Z,33.54
2023-05-10T10:20:38.708Z,34.60
2023-05-10T10:23:08.783Z,34.66
2023-05-10T10:25:35.905Z,34.61
2023-05-10T10:28:31.168Z,32.88
2023-05-10T10:31:12.625Z,33.15
2023-05-10T10:34:01.097Z,33.53
2023-05-10T10:36:31.670Z,33.50
2023-05-10T10:39:02.421Z,33.10
2023-05-10T10:41:33.716Z,33.24
2023-05-10T10:44:31.952Z,32.85
2023-05-10T10:47:09.670Z,32.62
2023-05-10T10:49:45.582Z,32.61
2023-05-10T10:52:30.306Z,32.76
2023-05-10T10:55:16.366Z,33.09
2023-05-10T10:57:53.023Z,33.12
2023-05-10T11:00:26.888Z,33.35
2023-05-10T11:02:55.439Z,33.75
2023-05-10T11:05:34.350Z,33.63
2023-05-10T11:08:02.320Z,33.89
2023-05-10T11:10:29.782Z,33.56
2023-05-10T11:13:03.629Z,33.62
2023-05-10T11:15:35.706Z,33.73
2023-05-10T11:18:22.619Z,33.43
2023-05-10T11:21:00.739Z,32.74
2023-05-10T11:23:52.321Z,32.26
2023-05-10T11:26:19.752Z,32.58
2023-05-10T11:28:48.433Z,31.69
2023-05-10T11:31:16.586Z,31.90
2023-05-10T11:33:47.474Z,32.14
2023-05-10T11:36:17.124Z,32.43
2023-05-10T11:38:44.125Z,32.62
2023-05-10T11:41:12.498Z,32.37
2023-05-10T11:43:43.291Z,32.19
2023-05-10T11:46:12.638Z,32.53
2023-05-10T11:48:43.744Z,32.87
2023-05-10T11:51:11.733Z,33.04
2023-05-10T11:53:39.440Z,33.28
2023-05-10T11:56:12.663Z,33.42
2023-05-10T11:58:40.600Z,33.29
2023-05-10T12:01:09.070Z,33.22
2023-05-10T15:12:31.980Z,35.55
2023-05-10T15:14:58.767Z,35.22
2023-05-10T15:17:25.471Z,35.03
2023-05-10T15:19:52.132Z,34.64
2023-05-10T15:22:19.082Z,35.17
2023-05-10T15:24:45.688Z,34.64
2023-05-10T15:27:12.521Z,34.76
2023-05-10T15:29:39.297Z,34.63
2023-05-10T15:32:05.965Z,34.83
2023-05-10T15:34:34.864Z,34.43
2023-05-10T15:37:02.399Z,34.53
2023-05-10T15:39:29.003Z,34.84
2023-05-10T15:41:55.653Z,34.76
2023-05-10T15:44:23.305Z,34.66
2023-05-10T15:46:50.731Z,34.71
2023-05-10T15:49:18.376Z,34.89
2023-05-10T15:51:45.282Z,34.96
2023-05-10T15:54:11.934Z,35.45
2023-05-10T15:56:38.577Z,36.21
2023-05-10T15:59:06.267Z,36.36
2023-05-10T16:01:33.241Z,36.43
2023-05-10T16:04:00.168Z,36.73
2023-05-10T16:06:27.237Z,37.03
2023-05-10T16:08:54.692Z,37.11
2023-05-10T16:11:21.632Z,37.52
2023-05-10T16:13:48.545Z,37.58
2023-05-10T16:16:15.185Z,37.99
2023-05-10T16:18:41.980Z,38.38
2023-05-10T16:21:08.600Z,38.20
2023-05-10T16:23:35.216Z,38.24
2023-05-10T16:26:02.270Z,38.56
2023-05-10T16:28:29.070Z,38.65
2023-05-10T16:30:55.694Z,38.90
2023-05-10T16:33:22.467Z,38.77
2023-05-10T16:35:49.383Z,38.89
2023-05-10T16:38:15.999Z,39.38
2023-05-10T16:40:42.674Z,38.95
2023-05-10T16:43:10.596Z,39.13
2023-05-10T16:45:37.427Z,39.24
2023-05-10T16:48:04.145Z,39.31
2023-05-10T16:50:30.970Z,39.52
2023-05-10T16:52:57.580Z,39.68
2023-05-10T16:55:26.375Z,39.86
2023-05-10T16:57:53.177Z,39.74
2023-05-10T17:00:20.966Z,39.85
2023-05-10T17:02:47.688Z,39.85
2023-05-10T17:05:14.536Z,40.12
2023-05-10T17:07:41.332Z,40.15
2023-05-10T17:10:08.563Z,40.31
2023-05-10T17:12:36.835Z,40.81
2023-05-10T17:15:03.958Z,41.00
2023-05-10T17:17:31.611Z,41.24
2023-05-10T17:19:59.004Z,41.61
2023-05-10T17:22:25.812Z,41.50
2023-05-10T17:24:52.664Z,41.72
2023-05-10T17:27:19.296Z,42.18
2023-05-10T17:29:46.050Z,42.63
2023-05-10T17:32:12.695Z,43.32
2023-05-10T17:34:39.610Z,43.56
2023-05-10T17:37:06.354Z,43.93
2023-05-10T17:39:34.299Z,44.35
2023-05-10T17:42:00.958Z,44.27
2023-05-10T17:44:27.668Z,44.73
2023-05-10T17:46:54.679Z,45.10
2023-05-10T17:49:21.326Z,45.64
2023-05-10T17:51:51.182Z,45.90
2023-05-10T17:54:18.103Z,46.34
2023-05-10T17:56:44.953Z,46.48
2023-05-10T17:59:11.623Z,47.04
2023-05-10T18:01:40.319Z,47.28
2023-05-10T18:04:07.995Z,47.44
2023-05-10T18:06:38.362Z,47.81
2023-05-10T18:09:07.392Z,48.01
2023-05-10T18:11:36.296Z,48.22
2023-05-10T18:14:03.018Z,48.09
2023-05-10T18:16:29.687Z,48.34
2023-05-10T18:18:56.881Z,48.38
2023-05-10T18:21:23.687Z,48.58
2023-05-10T18:23:50.346Z,48.72
2023-05-10T18:26:18.442Z,48.99
2023-05-10T18:28:45.185Z,49.08
2023-05-10T18:31:12.701Z,49.33
2023-05-10T18:33:39.732Z,49.75
2023-05-10T18:36:06.955Z,49.84
2023-05-10T18:38:33.745Z,50.05
2023-05-10T18:41:00.460Z,50.42
2023-05-10T18:43:27.124Z,50.71
2023-05-10T18:45:53.728Z,50.89
2023-05-10T18:48:20.360Z,51.22
2023-05-10T18:50:46.941Z,51.44
2023-05-10T18:53:14.099Z,51.74
2023-05-10T18:55:41.076Z,51.93
2023-05-10T18:58:07.661Z,52.33
2023-05-10T19:00:34.295Z,52.57
2023-05-10T19:03:01.049Z,52.66
2023-05-10T19:05:30.305Z,52.92
2023-05-10T19:07:57.091Z,53.09
2023-05-10T19:10:24.076Z,53.30
2023-05-10T19:12:50.825Z,53.53
2023-05-10T19:15:19.274Z,53.58
2023-05-10T19:17:47.758Z,53.71
2023-05-10T19:20:16.427Z,53.76
2023-05-10T19:22:58.099Z,53.83
2023-05-10T19:25:30.150Z,53.98
2023-05-10T19:27:59.576Z,54.02
2023-05-10T19:30:26.840Z,54.40
2023-05-10T19:32:53.700Z,54.43
2023-05-10T19:35:20.525Z,54.55
2023-05-10T19:37:47.426Z,54.81
2023-05-10T19:40:16.030Z,55.11
2023-05-10T19:42:42.860Z,54.99
2023-05-10T19:45:10.100Z,55.19
2023-05-10T19:47:37.638Z,55.33
2023-05-10T19:50:04.936Z,55.52
2023-05-10T19:52:31.609Z,55.77
2023-05-10T19:54:58.601Z,55.87
2023-05-10T19:57:25.255Z,55.82
2023-05-10T19:59:51.925Z,56.16
2023-05-10T20:02:18.669Z,56.20
2023-05-10T20:04:45.355Z,56.42
2023-05-10T20:07:12.648Z,56.43
2023-05-10T20:09:39.314Z,56.61
2023-05-10T20:12:05.949Z,56.78
2023-05-10T20:14:32.627Z,56.89
2023-05-10T20:16:59.453Z,56.77
2023-05-10T20:19:26.488Z,56.60
2023-05-10T20:21:55.988Z,56.51
2023-05-10T20:24:22.822Z,56.39
2023-05-10T20:26:49.388Z,56.42
2023-05-10T20:29:16.129Z,56.47
2023-05-10T20:31:42.955Z,56.51
2023-05-10T20:34:09.524Z,56.87
2023-05-10T20:36:36.140Z,57.03
2023-05-10T20:39:03.197Z,57.03
2023-05-10T20:41:29.786Z,57.00
2023-05-10T20:43:56.448Z,56.86
2023-05-10T20:46:23.666Z,56.75
2023-05-10T20:48:50.244Z,56.84
2023-05-10T20:51:17.978Z,56.92
2023-05-10T20:53:44.829Z,57.00
2023-05-10T20:56:11.425Z,57.05
2023-05-10T20:58:38.042Z,57.41
2023-05-10T21:01:04.996Z,57.44
2023-05-10T21:03:31.627Z,57.57
2023-05-10T21:05:58.193Z,57.57
2023-05-10T21:08:24.863Z,57.70
2023-05-10T21:10:51.511Z,57.58
2023-05-10T21:13:18.128Z,57.56
2023-05-10T21:15:44.965Z,57.74
2023-05-10T21:18:11.672Z,57.52
2023-05-10T21:20:38.486Z,57.82
2023-05-10T21:23:05.286Z,57.73
2023-05-10T21:25:31.945Z,58.01
2023-05-10T21:27:58.557Z,58.16
2023-05-10T21:30:25.497Z,58.16
2023-05-10T21:32:52.192Z,58.50
2023-05-10T21:35:18.769Z,58.52
2023-05-10T21:37:45.626Z,58.74
2023-05-10T21:40:12.900Z,58.62
2023-05-10T21:42:39.616Z,58.54
2023-05-10T21:45:07.507Z,58.76
2023-05-10T21:47:34.346Z,58.86
2023-05-10T21:50:00.999Z,58.87
2023-05-10T21:52:27.859Z,58.82
2023-05-10T21:54:54.473Z,59.02
2023-05-10T21:57:21.585Z,58.98
2023-05-10T21:59:48.373Z,59.25
2023-05-10T22:02:15.005Z,59.08
2023-05-10T22:04:41.606Z,59.30
2023-05-10T22:07:08.482Z,59.45
2023-05-10T22:09:35.134Z,59.46
2023-05-10T22:12:01.758Z,59.65
2023-05-10T22:14:28.565Z,59.86
2023-05-10T22:16:55.234Z,60.12
2023-05-10T22:19:21.841Z,60.25
2023-05-10T22:21:49.009Z,60.40
2023-05-10T22:24:15.720Z,60.60
2023-05-10T22:26:42.403Z,60.50
2023-05-10T22:29:09.067Z,60.91
2023-05-10T22:31:36.234Z,61.00
2023-05-10T22:34:02.983Z,61.24
2023-05-10T22:36:30.422Z,61.51
2023-05-10T22:38:57.102Z,61.39
2023-05-10T22:41:23.721Z,61.73
2023-05-10T22:43:50.519Z,61.83
2023-05-10T22:46:17.141Z,62.08
2023-05-10T22:48:43.895Z,62.15
2023-05-10T22:51:10.739Z,62.09
2023-05-10T22:53:37.404Z,62.34
2023-05-10T22:56:04.222Z,62.16
2023-05-10T22:58:35.493Z,62.44
2023-05-10T23:01:02.098Z,62.20
2023-05-10T23:03:29.762Z,62.46
2023-05-10T23:05:56.806Z,62.63
2023-05-10T23:08:23.480Z,62.89
2023-05-10T23:10:50.035Z,62.69
2023-05-10T23:13:17.090Z,62.69
2023-05-10T23:15:43.711Z,62.80
2023-05-10T23:18:10.432Z,63.25
2023-05-10T23:20:37.470Z,63.24
2023-05-10T23:23:04.117Z,63.11
2023-05-10T23:25:30.894Z,63.32
2023-05-10T23:27:57.850Z,63.75
2023-05-10T23:30:24.490Z,63.89
2023-05-10T23:32:51.229Z,63.85
2023-05-10T23:35:18.076Z,63.79
2023-05-10T23:37:44.738Z,64.04
2023-05-10T23:40:11.699Z,63.93
2023-05-10T23:42:38.806Z,63.97
2023-05-10T23:45:05.844Z,64.35
2023-05-10T23:47:32.786Z,64.38
2023-05-10T23:49:59.488Z,64.54
2023-05-10T23:52:26.211Z,64.66
2023-05-10T23:54:53.573Z,64.93
2023-05-10T23:57:20.778Z,64.92
2023-05-10T23:59:47.484Z,64.79
